Time;durP1;ratioP1;P1;durP2;ratioP2;P2;SDS_P1;SDS_P2;PMS_P1;PMS_P2;Temp;Humidity;BMP_temperature;BMP_pressure;BME280_temperature;BME280_humidity;BME280_pressure;Samples;Min_cycle;Max_cycle;Signal;HPM_P1;HPM_P2
2022/10/14 00:01:29;;;;;;;32.78;18.25;;;10.00;99.90;;;;;;5081806;28;20230;-82
2022/10/14 00:04:18;;;;;;;30.45;18.48;;;9.90;99.90;;;;;;5092724;28;20237;-82
2022/10/14 00:07:06;;;;;;;33.65;18.95;;;10.00;99.90;;;;;;5100342;28;20219;-79
2022/10/14 00:09:55;;;;;;;30.30;18.20;;;10.00;99.90;;;;;;5111315;28;20314;-84
2022/10/14 00:12:44;;;;;;;30.83;18.65;;;9.90;99.90;;;;;;5098109;28;20570;-84
2022/10/14 00:15:38;;;;;;;30.42;17.40;;;10.00;99.90;;;;;;5082535;28;20686;-83
2022/10/14 00:18:28;;;;;;;33.97;17.67;;;10.00;99.90;;;;;;5080774;28;20234;-84
2022/10/14 00:21:18;;;;;;;33.17;18.77;;;10.10;99.90;;;;;;5074724;28;20725;-84
2022/10/14 00:24:08;;;;;;;31.45;18.75;;;9.90;99.90;;;;;;5094134;28;20717;-85
2022/10/14 00:26:57;;;;;;;33.33;18.42;;;9.80;99.90;;;;;;5078782;27;20222;-84
2022/10/14 00:29:45;;;;;;;34.58;18.83;;;9.80;99.90;;;;;;5085820;28;20210;-85
2022/10/14 00:32:34;;;;;;;30.58;17.50;;;9.70;99.90;;;;;;5100040;27;20226;-84
2022/10/14 00:35:24;;;;;;;32.85;18.98;;;9.70;99.90;;;;;;5082322;28;20246;-84
2022/10/14 00:38:13;;;;;;;36.22;18.20;;;9.60;99.90;;;;;;5107521;28;20368;-83
2022/10/14 00:41:02;;;;;;;30.95;17.52;;;9.70;99.90;;;;;;5095633;28;20537;-84
2022/10/14 00:43:56;;;;;;;29.33;17.95;;;9.80;99.90;;;;;;5103479;27;20218;-85
2022/10/14 00:46:46;;;;;;;33.38;18.50;;;9.70;99.90;;;;;;5105143;27;20215;-84
2022/10/14 00:49:39;;;;;;;27.60;17.45;;;9.80;99.90;;;;;;5098191;28;20815;-83
2022/10/14 00:52:29;;;;;;;34.80;17.02;;;9.80;99.90;;;;;;5100511;28;20219;-85
2022/10/14 00:55:19;;;;;;;30.70;18.17;;;9.80;99.90;;;;;;5087711;28;20239;-85
2022/10/14 00:58:09;;;;;;;36.20;18.05;;;9.70;99.90;;;;;;5102937;27;20225;-84
2022/10/14 01:00:59;;;;;;;30.20;17.17;;;9.80;99.90;;;;;;5081822;28;20304;-85
2022/10/14 01:03:48;;;;;;;30.80;17.80;;;9.70;99.90;;;;;;5091955;28;20227;-85
2022/10/14 01:06:46;;;;;;;31.83;17.25;;;9.70;99.90;;;;;;5098447;28;20222;-84
2022/10/14 01:09:41;;;;;;;27.90;16.60;;;9.70;99.90;;;;;;5100888;28;20241;-84
2022/10/14 01:12:44;;;;;;;31.80;16.85;;;9.70;99.90;;;;;;5083792;28;20249;-85
2022/10/14 01:15:39;;;;;;;29.92;17.27;;;9.60;99.90;;;;;;5078603;28;20214;-85
2022/10/14 01:18:43;;;;;;;29.25;17.42;;;9.60;99.90;;;;;;5086666;28;20220;-84
2022/10/14 01:21:37;;;;;;;27.83;17.35;;;9.60;99.90;;;;;;5084370;28;20289;-84
2022/10/14 01:24:42;;;;;;;34.63;18.60;;;9.60;99.90;;;;;;5087305;28;20216;-84
2022/10/14 01:27:54;;;;;;;30.75;17.17;;;9.50;99.90;;;;;;5091100;27;20261;-85
2022/10/14 01:30:46;;;;;;;29.60;17.17;;;9.70;99.90;;;;;;5095341;27;20219;-81
2022/10/14 01:33:37;;;;;;;30.35;17.85;;;9.50;99.90;;;;;;5083311;28;20586;-80
2022/10/14 01:36:31;;;;;;;31.60;16.58;;;9.40;99.90;;;;;;5088545;28;20709;-82
2022/10/14 01:39:25;;;;;;;28.38;16.90;;;9.50;99.90;;;;;;5081532;28;20238;-81
2022/10/14 01:42:18;;;;;;;28.83;16.92;;;9.60;99.90;;;;;;5083057;28;20227;-82
2022/10/14 01:45:13;;;;;;;30.10;17.27;;;9.70;99.90;;;;;;5064662;28;20252;-81
2022/10/14 01:48:05;;;;;;;28.70;17.15;;;9.60;99.90;;;;;;5097408;28;20224;-77
2022/10/14 01:50:57;;;;;;;31.67;17.80;;;9.70;99.90;;;;;;5086637;28;20594;-81
2022/10/14 01:53:52;;;;;;;33.83;18.02;;;9.60;99.90;;;;;;5092088;28;20276;-82
2022/10/14 01:56:45;;;;;;;28.02;17.52;;;9.60;99.90;;;;;;5079865;27;20226;-83
2022/10/14 01:59:36;;;;;;;31.75;17.70;;;9.40;99.90;;;;;;5087972;28;20242;-82
2022/10/14 02:02:26;;;;;;;32.40;18.95;;;9.40;99.90;;;;;;5102578;27;20636;-83
2022/10/14 02:05:22;;;;;;;29.83;17.80;;;9.40;99.90;;;;;;5065308;28;20236;-82
2022/10/14 02:08:17;;;;;;;29.45;17.63;;;9.40;99.90;;;;;;5089543;28;20226;-82
2022/10/14 02:11:11;;;;;;;31.20;18.60;;;9.30;99.90;;;;;;5085650;28;20219;-83
2022/10/14 02:14:10;;;;;;;32.67;18.17;;;9.30;99.90;;;;;;5082037;28;20242;-81
2022/10/14 02:17:03;;;;;;;36.97;18.73;;;9.30;99.90;;;;;;5092790;27;20231;-82
2022/10/14 02:19:58;;;;;;;28.33;17.13;;;9.40;99.90;;;;;;5083130;28;20302;-81
2022/10/14 02:22:53;;;;;;;32.05;18.27;;;9.40;99.90;;;;;;5089722;28;20701;-80
2022/10/14 02:25:46;;;;;;;32.38;18.45;;;9.30;99.90;;;;;;5095423;27;20222;-81
2022/10/14 02:28:37;;;;;;;32.70;19.15;;;9.20;99.90;;;;;;5084299;28;20275;-78
2022/10/14 02:31:28;;;;;;;33.22;18.65;;;9.20;99.90;;;;;;5098508;28;20708;-80
2022/10/14 02:34:22;;;;;;;29.95;17.52;;;9.00;99.90;;;;;;5081704;28;20244;-76
2022/10/14 02:37:13;;;;;;;28.83;17.50;;;9.20;99.90;;;;;;5081490;28;20818;-76
2022/10/14 02:40:10;;;;;;;30.45;18.27;;;9.10;99.90;;;;;;5095190;28;20298;-78
2022/10/14 02:42:59;;;;;;;37.10;19.88;;;9.10;99.90;;;;;;5083118;28;20219;-78
2022/10/14 02:45:48;;;;;;;33.72;19.13;;;9.20;99.90;;;;;;5078209;28;20215;-78
2022/10/14 02:48:37;;;;;;;26.65;17.95;;;9.20;99.90;;;;;;5087352;28;20230;-78
2022/10/14 02:51:26;;;;;;;33.78;19.00;;;9.10;99.90;;;;;;5080196;28;20292;-78
2022/10/14 02:54:15;;;;;;;33.17;18.33;;;9.30;99.90;;;;;;5092692;27;20249;-78
2022/10/14 02:57:05;;;;;;;34.22;19.08;;;9.30;99.90;;;;;;5078761;28;20250;-78
2022/10/14 02:59:54;;;;;;;32.90;19.50;;;9.20;99.90;;;;;;5084764;28;20589;-77
2022/10/14 03:02:45;;;;;;;30.92;19.13;;;9.00;99.90;;;;;;5082158;28;20222;-79
2022/10/14 03:05:36;;;;;;;38.90;18.73;;;8.90;99.90;;;;;;5063284;28;20710;-77
2022/10/14 03:08:30;;;;;;;32.40;18.30;;;9.10;99.90;;;;;;5062143;28;20235;-77
2022/10/14 03:11:20;;;;;;;28.85;17.98;;;9.20;99.90;;;;;;5059046;28;20219;-82
2022/10/14 03:14:13;;;;;;;36.25;19.20;;;9.20;99.90;;;;;;5093953;27;20219;-81
2022/10/14 03:17:03;;;;;;;28.10;18.05;;;9.00;99.90;;;;;;5081370;28;20225;-81
2022/10/14 03:19:54;;;;;;;30.58;17.88;;;9.00;99.90;;;;;;5083403;28;20231;-81
2022/10/14 03:22:46;;;;;;;34.78;20.60;;;9.10;99.90;;;;;;5088782;28;20210;-81
2022/10/14 03:25:36;;;;;;;32.65;18.90;;;8.90;99.90;;;;;;5083498;28;20230;-81
2022/10/14 03:28:36;;;;;;;30.52;18.67;;;9.00;99.90;;;;;;5078605;28;20219;-80
2022/10/14 03:31:56;;;;;;;30.20;19.27;;;9.00;99.90;;;;;;5022596;28;20223;-80
2022/10/14 03:34:50;;;;;;;32.78;19.45;;;9.00;99.90;;;;;;5077801;28;20695;-80
2022/10/14 03:37:43;;;;;;;35.17;19.63;;;9.00;99.90;;;;;;5101393;28;20210;-78
2022/10/14 03:40:33;;;;;;;31.80;19.65;;;8.80;99.90;;;;;;5085322;28;20780;-79
2022/10/14 03:43:27;;;;;;;31.45;19.88;;;8.70;99.90;;;;;;5088074;28;20575;-77
2022/10/14 03:46:19;;;;;;;28.13;19.77;;;8.70;99.90;;;;;;5086857;27;20272;-79
2022/10/14 03:49:11;;;;;;;29.30;18.80;;;8.90;99.90;;;;;;5084793;28;20910;-78
2022/10/14 03:51:59;;;;;;;28.48;18.67;;;9.00;99.90;;;;;;5095971;28;20215;-80
2022/10/14 03:54:52;;;;;;;32.58;19.75;;;9.00;99.90;;;;;;5086407;28;20242;-80
2022/10/14 03:57:41;;;;;;;35.15;19.58;;;9.00;99.90;;;;;;5083575;28;20915;-80
2022/10/14 04:00:34;;;;;;;32.85;18.35;;;8.90;99.90;;;;;;5101062;28;20223;-79
2022/10/14 04:03:45;;;;;;;36.92;19.58;;;8.90;99.90;;;;;;5096134;28;20781;-79
2022/10/14 04:06:35;;;;;;;31.50;19.87;;;8.90;99.90;;;;;;5079018;28;20717;-78
2022/10/14 04:09:28;;;;;;;35.60;20.33;;;9.00;99.90;;;;;;5078871;28;20224;-78
2022/10/14 04:12:16;;;;;;;32.50;20.07;;;9.00;99.90;;;;;;5079999;28;20597;-76
2022/10/14 04:15:14;;;;;;;37.55;20.00;;;9.00;99.90;;;;;;5078516;28;20218;-78
2022/10/14 04:18:23;;;;;;;31.17;19.17;;;8.90;99.90;;;;;;5096292;28;20238;-78
2022/10/14 04:21:15;;;;;;;31.67;20.13;;;9.00;99.90;;;;;;5074718;28;20291;-77
2022/10/14 04:24:11;;;;;;;32.10;19.65;;;8.90;99.90;;;;;;5083692;28;20789;-83
2022/10/14 04:27:08;;;;;;;30.83;19.70;;;8.90;99.90;;;;;;5074367;28;20211;-81
2022/10/14 04:30:04;;;;;;;35.05;19.85;;;9.00;99.90;;;;;;5078453;28;20329;-81
2022/10/14 04:33:03;;;;;;;30.63;20.17;;;8.90;99.90;;;;;;5079531;28;20249;-80
2022/10/14 04:35:58;;;;;;;35.50;19.43;;;8.80;99.90;;;;;;5079051;28;20246;-81
2022/10/14 04:38:53;;;;;;;32.03;18.37;;;8.80;99.90;;;;;;5090821;28;20239;-82
2022/10/14 04:41:43;;;;;;;35.63;19.60;;;8.90;99.90;;;;;;5080713;28;20215;-82
2022/10/14 04:44:35;;;;;;;34.40;21.17;;;8.90;99.90;;;;;;5085380;28;20214;-81
2022/10/14 04:47:24;;;;;;;31.25;19.35;;;8.90;99.90;;;;;;5081486;28;20227;-82
2022/10/14 04:50:19;;;;;;;31.98;19.58;;;8.90;99.90;;;;;;5086827;28;20244;-82
2022/10/14 04:53:27;;;;;;;30.98;19.70;;;8.80;99.90;;;;;;5095651;28;20226;-82
2022/10/14 04:56:36;;;;;;;33.78;20.08;;;8.80;99.90;;;;;;5097441;28;20337;-81
2022/10/14 04:59:27;;;;;;;34.97;20.87;;;8.90;99.90;;;;;;5077917;28;20250;-82
2022/10/14 05:02:36;;;;;;;41.47;20.33;;;8.90;99.90;;;;;;5079037;28;20225;-82
2022/10/14 05:05:25;;;;;;;32.47;20.40;;;8.80;99.90;;;;;;5097845;28;20231;-83
2022/10/14 05:08:17;;;;;;;31.58;19.98;;;8.70;99.90;;;;;;5086380;28;20233;-80
2022/10/14 05:11:08;;;;;;;34.37;20.23;;;8.90;99.90;;;;;;5083774;28;20227;-80
2022/10/14 05:14:03;;;;;;;31.50;19.43;;;8.80;99.90;;;;;;5089819;28;20701;-80
2022/10/14 05:16:55;;;;;;;38.83;21.03;;;9.00;99.90;;;;;;5083380;28;20631;-82
2022/10/14 05:19:49;;;;;;;33.87;20.63;;;9.00;99.90;;;;;;5086434;28;20377;-79
2022/10/14 05:22:40;;;;;;;30.50;19.87;;;8.80;99.90;;;;;;5092153;28;20227;-83
2022/10/14 05:25:29;;;;;;;35.55;20.20;;;8.90;99.90;;;;;;5100203;27;20222;-82
2022/10/14 05:28:18;;;;;;;35.80;21.83;;;9.00;99.90;;;;;;5086390;27;20300;-82
2022/10/14 05:31:09;;;;;;;34.97;20.93;;;8.90;99.90;;;;;;5085076;28;20590;-82
2022/10/14 05:34:07;;;;;;;30.38;20.95;;;9.00;99.90;;;;;;5090330;28;20222;-82
2022/10/14 05:36:57;;;;;;;36.92;21.75;;;9.00;99.90;;;;;;5080918;28;20225;-79
2022/10/14 05:39:46;;;;;;;37.42;20.75;;;9.00;99.90;;;;;;5089962;28;20733;-80
2022/10/14 05:42:39;;;;;;;35.25;20.90;;;9.10;99.90;;;;;;5101197;28;20215;-79
2022/10/14 05:45:28;;;;;;;31.35;20.17;;;9.10;99.90;;;;;;5091733;27;20227;-79
2022/10/14 05:48:17;;;;;;;35.40;21.20;;;9.20;99.90;;;;;;5082719;28;20219;-80
2022/10/14 05:51:07;;;;;;;39.58;21.90;;;9.20;99.90;;;;;;5081744;28;20226;-79
2022/10/14 05:53:58;;;;;;;38.08;21.67;;;9.10;99.90;;;;;;5083614;28;20229;-81
2022/10/14 05:56:47;;;;;;;31.70;20.95;;;9.00;99.90;;;;;;5085321;28;20218;-81
2022/10/14 05:59:36;;;;;;;37.93;21.87;;;9.20;99.90;;;;;;5085384;28;20302;-77
2022/10/14 06:02:24;;;;;;;35.43;21.47;;;9.30;99.90;;;;;;5081303;27;20275;-79
2022/10/14 06:05:14;;;;;;;33.30;21.50;;;9.40;99.90;;;;;;5095849;27;20227;-85
2022/10/14 06:08:06;;;;;;;35.90;22.90;;;9.50;99.90;;;;;;5078685;28;20215;-82
2022/10/14 06:10:57;;;;;;;34.83;21.88;;;9.60;99.90;;;;;;5085660;28;20234;-86
2022/10/14 06:13:47;;;;;;;36.42;21.42;;;9.60;99.90;;;;;;5085106;28;20231;-81
2022/10/14 06:16:37;;;;;;;40.65;24.02;;;9.70;99.90;;;;;;5088923;28;20222;-80
2022/10/14 06:19:27;;;;;;;38.83;21.67;;;9.50;99.90;;;;;;5084307;27;20237;-81
2022/10/14 06:22:16;;;;;;;36.60;22.38;;;9.70;99.90;;;;;;5085915;28;20716;-81
2022/10/14 06:25:08;;;;;;;35.75;22.73;;;9.80;99.90;;;;;;5095076;28;20215;-81
2022/10/14 06:28:03;;;;;;;39.42;23.27;;;9.60;99.90;;;;;;5084184;28;20689;-81
2022/10/14 06:30:52;;;;;;;36.07;22.73;;;9.70;99.90;;;;;;5091204;28;20215;-81
2022/10/14 06:33:42;;;;;;;40.70;22.50;;;9.90;99.90;;;;;;5085962;27;20214;-80
2022/10/14 06:36:31;;;;;;;33.85;21.40;;;9.90;99.90;;;;;;5101205;27;20768;-80
2022/10/14 06:39:20;;;;;;;37.53;22.87;;;10.00;99.90;;;;;;5093327;28;20318;-80
2022/10/14 06:58:47;;;;;;;40.75;23.20;;;10.10;99.90;;;;;;5084715;27;20306;-79
2022/10/14 07:01:36;;;;;;;38.80;23.08;;;10.20;99.90;;;;;;5102316;28;20766;-82
2022/10/14 07:04:25;;;;;;;36.75;22.73;;;10.20;99.90;;;;;;5097125;28;20227;-81
2022/10/14 07:07:14;;;;;;;39.17;23.05;;;10.30;99.90;;;;;;5098595;28;20226;-82
2022/10/14 07:10:03;;;;;;;32.92;22.65;;;10.30;99.90;;;;;;5090188;28;20227;-81
2022/10/14 07:12:55;;;;;;;36.28;22.20;;;10.40;99.90;;;;;;5093188;28;20363;-80
2022/10/14 07:15:48;;;;;;;36.63;22.15;;;10.40;99.90;;;;;;5096262;28;20219;-80
2022/10/14 07:18:37;;;;;;;34.83;23.38;;;10.50;99.90;;;;;;5095821;28;20218;-80
2022/10/14 07:21:25;;;;;;;35.10;22.70;;;10.50;99.90;;;;;;5109065;27;20218;-81
2022/10/14 07:24:14;;;;;;;36.60;22.83;;;10.50;99.90;;;;;;5086535;28;20693;-81
2022/10/14 07:27:03;;;;;;;36.83;23.05;;;10.60;99.90;;;;;;5089229;27;20582;-81
2022/10/14 07:29:52;;;;;;;40.13;23.52;;;10.80;99.90;;;;;;5094701;28;20238;-82
2022/10/14 07:32:42;;;;;;;35.67;23.83;;;10.80;99.90;;;;;;5092885;28;20227;-81
2022/10/14 07:35:31;;;;;;;34.80;23.33;;;10.80;99.90;;;;;;5098229;28;20223;-81
2022/10/14 07:38:20;;;;;;;34.25;23.25;;;10.80;99.90;;;;;;5091566;28;20223;-81
2022/10/14 07:41:15;;;;;;;39.38;23.20;;;10.70;99.90;;;;;;5094732;28;20223;-80
2022/10/14 07:44:08;;;;;;;39.80;24.48;;;10.80;99.90;;;;;;5080647;28;20259;-80
2022/10/14 07:46:58;;;;;;;37.97;23.48;;;10.80;99.90;;;;;;5070593;28;20341;-81
2022/10/14 07:49:48;;;;;;;42.75;23.65;;;11.00;99.90;;;;;;5085703;28;20223;-82
2022/10/14 07:52:37;;;;;;;37.45;23.17;;;11.30;99.90;;;;;;5085582;28;21014;-80
2022/10/14 07:55:26;;;;;;;36.60;22.85;;;11.40;99.90;;;;;;5093536;28;20219;-79
2022/10/14 07:58:15;;;;;;;36.40;21.75;;;11.50;99.90;;;;;;5086712;28;20222;-81
2022/10/14 08:01:04;;;;;;;32.63;23.20;;;11.70;99.90;;;;;;5084713;28;20220;-80
2022/10/14 08:03:53;;;;;;;34.60;23.20;;;11.80;99.90;;;;;;5089875;28;20248;-78
2022/10/14 08:06:43;;;;;;;33.13;22.50;;;11.80;99.90;;;;;;5097886;28;20219;-81
2022/10/14 08:09:34;;;;;;;34.70;22.42;;;11.90;99.90;;;;;;5075440;28;20208;-79
2022/10/14 08:12:23;;;;;;;33.15;21.90;;;12.10;99.90;;;;;;5098288;27;20223;-82
2022/10/14 08:15:12;;;;;;;36.30;23.23;;;12.10;99.90;;;;;;5073842;28;20219;-83
2022/10/14 08:18:01;;;;;;;34.67;23.42;;;12.30;99.90;;;;;;5089303;28;20226;-80
2022/10/14 08:20:50;;;;;;;36.08;21.73;;;12.30;99.90;;;;;;5090419;27;20215;-80
2022/10/14 08:23:40;;;;;;;37.03;23.02;;;12.50;99.90;;;;;;5102668;27;20314;-80
2022/10/14 08:26:31;;;;;;;33.70;22.98;;;12.50;99.90;;;;;;5101657;28;20230;-83
2022/10/14 08:29:22;;;;;;;33.10;23.65;;;12.60;99.90;;;;;;5086290;28;20241;-80
2022/10/14 08:32:10;;;;;;;34.47;23.48;;;12.80;99.90;;;;;;5098134;28;20298;-79
2022/10/14 08:34:59;;;;;;;36.28;23.38;;;13.00;99.90;;;;;;5096387;28;20218;-80
2022/10/14 08:37:56;;;;;;;34.50;23.60;;;13.20;99.90;;;;;;5087580;28;20719;-78
2022/10/14 08:40:59;;;;;;;36.65;23.80;;;13.10;99.90;;;;;;5083220;28;20219;-79
2022/10/14 08:43:52;;;;;;;35.03;23.73;;;13.20;99.90;;;;;;5079662;28;20229;-81
2022/10/14 08:46:44;;;;;;;37.70;24.17;;;13.20;99.90;;;;;;5087047;28;20597;-81
2022/10/14 08:49:51;;;;;;;34.63;24.40;;;13.10;99.90;;;;;;5081055;28;20219;-82
2022/10/14 08:52:46;;;;;;;38.75;24.17;;;13.30;99.90;;;;;;5099067;28;20229;-89
2022/10/14 08:55:39;;;;;;;35.67;23.42;;;13.50;99.90;;;;;;5110015;28;20222;-84
2022/10/14 08:58:34;;;;;;;35.78;22.98;;;13.60;99.90;;;;;;5104017;28;20230;-80
2022/10/14 09:01:27;;;;;;;34.33;21.90;;;13.70;99.90;;;;;;5092957;27;20225;-83
2022/10/14 09:04:17;;;;;;;40.42;23.15;;;13.80;99.90;;;;;;5089312;28;20295;-79
2022/10/14 09:07:06;;;;;;;28.10;21.65;;;13.90;99.90;;;;;;5086446;28;20238;-84
2022/10/14 09:10:00;;;;;;;34.63;22.55;;;14.00;99.90;;;;;;5093376;28;20217;-82
2022/10/14 09:12:52;;;;;;;33.33;22.70;;;14.00;99.90;;;;;;5090421;28;20246;-84
2022/10/14 09:15:45;;;;;;;29.17;21.15;;;13.90;99.90;;;;;;5102774;28;20230;-83
2022/10/14 09:18:38;;;;;;;30.60;21.98;;;14.00;99.90;;;;;;5084775;28;20309;-85
2022/10/14 09:21:31;;;;;;;31.30;20.17;;;14.20;99.90;;;;;;5083815;28;20222;-83
2022/10/14 09:24:40;;;;;;;32.03;21.00;;;14.20;99.90;;;;;;5105112;28;20226;-79
2022/10/14 09:27:29;;;;;;;32.25;21.10;;;14.30;99.90;;;;;;5101577;28;20227;-79
2022/10/14 09:30:19;;;;;;;31.90;20.88;;;14.30;99.90;;;;;;5102981;28;20215;-78
2022/10/14 09:33:16;;;;;;;31.65;21.75;;;14.40;99.90;;;;;;5102355;28;20222;-79
2022/10/14 09:36:06;;;;;;;32.60;22.05;;;14.40;99.90;;;;;;5101662;28;20245;-82
2022/10/14 09:38:55;;;;;;;30.48;21.08;;;14.40;99.90;;;;;;5102884;28;20227;-81
2022/10/14 09:41:46;;;;;;;34.28;20.90;;;14.30;99.90;;;;;;5083265;28;20214;-80
2022/10/14 09:44:35;;;;;;;30.70;20.02;;;14.40;99.90;;;;;;5089025;27;20256;-80
2022/10/14 09:47:24;;;;;;;26.13;19.60;;;14.40;99.90;;;;;;5083862;28;20726;-79
2022/10/14 09:50:25;;;;;;;28.08;17.13;;;14.50;99.90;;;;;;5100897;28;20594;-81
2022/10/14 09:53:17;;;;;;;24.55;18.95;;;14.50;99.90;;;;;;5096394;28;20215;-81
2022/10/14 09:56:09;;;;;;;30.23;19.75;;;14.50;99.90;;;;;;5101410;28;20772;-79
2022/10/14 09:58:58;;;;;;;30.05;20.05;;;14.50;99.90;;;;;;5101596;28;20260;-79
2022/10/14 10:01:51;;;;;;;27.92;19.38;;;14.50;99.90;;;;;;5082097;28;20820;-81
2022/10/14 10:04:45;;;;;;;22.98;17.58;;;14.50;99.90;;;;;;5089977;28;20631;-81
2022/10/14 10:07:36;;;;;;;28.25;18.58;;;14.50;99.90;;;;;;5102959;28;20230;-81
2022/10/14 10:10:25;;;;;;;27.83;18.63;;;14.50;99.90;;;;;;5101145;28;20743;-82
2022/10/14 10:13:32;;;;;;;32.75;19.73;;;14.50;99.90;;;;;;5089502;28;20226;-80
2022/10/14 10:16:23;;;;;;;28.98;18.95;;;14.50;99.90;;;;;;5099968;28;20234;-80
2022/10/14 10:19:26;;;;;;;31.80;19.33;;;14.60;99.90;;;;;;5099906;28;20233;-81
2022/10/14 10:22:21;;;;;;;26.15;18.80;;;14.60;99.90;;;;;;5098862;28;20333;-83
2022/10/14 10:25:25;;;;;;;29.13;18.05;;;14.60;99.90;;;;;;5097080;28;20230;-81
2022/10/14 10:28:19;;;;;;;27.27;18.85;;;14.60;99.90;;;;;;5091382;28;20233;-81
2022/10/14 10:31:19;;;;;;;27.25;19.33;;;14.70;99.90;;;;;;5082661;28;20221;-81
2022/10/14 10:34:30;;;;;;;28.77;19.23;;;14.80;99.90;;;;;;5095867;28;20589;-81
2022/10/14 10:37:25;;;;;;;32.75;18.25;;;14.90;99.90;;;;;;5080173;28;20682;-81
2022/10/14 10:40:39;;;;;;;27.48;18.20;;;15.10;99.90;;;;;;5096637;28;20279;-80
2022/10/14 10:43:48;;;;;;;27.83;18.55;;;15.30;99.90;;;;;;5097058;28;20210;-79
2022/10/14 10:46:51;;;;;;;26.65;18.42;;;15.50;99.90;;;;;;5094493;27;20249;-79
2022/10/14 10:49:58;;;;;;;25.95;18.35;;;15.50;99.90;;;;;;5097782;28;20221;-79
2022/10/14 10:53:05;;;;;;;23.95;18.77;;;15.60;99.90;;;;;;5083216;28;20745;-79
2022/10/14 10:56:06;;;;;;;31.52;18.75;;;15.60;99.90;;;;;;5097887;28;20218;-79
2022/10/14 10:59:17;;;;;;;24.63;18.58;;;15.70;99.90;;;;;;5098295;28;20750;-79
2022/10/14 11:02:44;;;;;;;31.02;18.58;;;15.80;99.90;;;;;;5097847;28;20728;-80
2022/10/14 11:05:43;;;;;;;26.13;17.88;;;15.90;99.90;;;;;;5095643;28;20634;-79
2022/10/14 11:12:06;;;;;;;23.95;18.13;;;16.00;99.90;;;;;;5081563;28;20226;-81
2022/10/14 11:15:13;;;;;;;27.58;18.08;;;16.10;99.90;;;;;;5090965;28;20577;-78
2022/10/14 11:18:05;;;;;;;27.10;18.73;;;16.10;99.90;;;;;;5097085;28;20218;-79
2022/10/14 11:21:04;;;;;;;23.58;17.08;;;16.00;99.90;;;;;;5094679;28;20246;-80
2022/10/14 11:24:10;;;;;;;25.52;17.50;;;16.10;99.90;;;;;;5101484;28;20241;-80
2022/10/14 11:27:07;;;;;;;28.63;19.15;;;16.10;99.90;;;;;;5080674;28;20235;-80
2022/10/14 11:30:12;;;;;;;25.80;17.95;;;16.10;99.90;;;;;;5100786;28;20293;-80
2022/10/14 11:33:22;;;;;;;27.25;17.65;;;16.20;99.90;;;;;;5078116;28;20397;-80
2022/10/14 11:36:21;;;;;;;29.95;19.00;;;16.10;99.90;;;;;;5082781;28;20334;-79
2022/10/14 11:39:23;;;;;;;29.23;19.48;;;16.10;99.90;;;;;;5092527;28;20227;-80
2022/10/14 11:42:27;;;;;;;26.25;18.90;;;16.20;99.90;;;;;;5079609;28;20233;-79
2022/10/14 11:45:46;;;;;;;33.22;20.20;;;16.20;99.90;;;;;;5098965;28;20349;-81
2022/10/14 11:48:42;;;;;;;25.83;19.55;;;16.20;99.90;;;;;;5100670;28;20223;-81
2022/10/14 11:51:37;;;;;;;28.80;19.15;;;16.10;99.90;;;;;;5089709;28;20219;-81
2022/10/14 11:54:32;;;;;;;31.15;19.20;;;16.10;99.90;;;;;;5101928;27;20211;-80
2022/10/14 11:57:30;;;;;;;31.55;19.38;;;16.20;99.90;;;;;;5100939;28;20249;-79
2022/10/14 12:00:22;;;;;;;31.65;20.30;;;16.20;99.90;;;;;;5099200;28;20718;-80
2022/10/14 12:03:20;;;;;;;25.63;18.92;;;16.20;99.90;;;;;;5100969;28;20954;-79
2022/10/14 12:10:25;;;;;;;26.42;19.33;;;16.30;99.90;;;;;;5071163;27;20298;-78
2022/10/14 12:13:17;;;;;;;27.23;18.85;;;16.10;99.90;;;;;;5064117;28;20299;-76
2022/10/14 12:16:13;;;;;;;27.38;19.50;;;16.20;99.90;;;;;;5043954;28;20236;-79
2022/10/14 12:19:02;;;;;;;26.35;18.52;;;16.20;99.90;;;;;;5048292;28;20229;-79
2022/10/14 12:21:54;;;;;;;27.50;19.58;;;16.10;99.90;;;;;;5045936;28;20232;-78
2022/10/14 12:24:50;;;;;;;29.35;19.13;;;16.20;99.90;;;;;;5067909;28;20274;-80
2022/10/14 12:27:41;;;;;;;28.95;18.77;;;16.30;99.90;;;;;;5035692;28;20900;-79
2022/10/14 12:30:36;;;;;;;25.80;19.52;;;16.40;99.90;;;;;;5044555;28;20235;-81
2022/10/14 12:33:25;;;;;;;29.33;20.67;;;16.40;99.90;;;;;;5058790;28;20230;-80
2022/10/14 12:36:32;;;;;;;28.77;19.70;;;16.40;99.90;;;;;;5053946;28;20220;-80
2022/10/14 12:39:34;;;;;;;28.35;20.10;;;16.40;99.90;;;;;;5044918;28;20231;-79
2022/10/14 12:42:25;;;;;;;30.48;19.48;;;16.30;99.90;;;;;;5037268;28;20240;-80
2022/10/14 12:45:17;;;;;;;30.05;20.85;;;16.30;99.90;;;;;;5040281;28;20224;-80
2022/10/14 12:48:17;;;;;;;29.42;20.98;;;16.20;99.90;;;;;;5040038;28;20703;-79
2022/10/14 12:51:13;;;;;;;32.28;20.70;;;16.20;99.90;;;;;;5040068;28;20354;-80
2022/10/14 12:54:07;;;;;;;25.42;19.65;;;16.20;99.90;;;;;;5038049;28;20224;-79
2022/10/14 12:56:59;;;;;;;29.92;21.30;;;16.20;99.90;;;;;;5041150;28;20232;-80
2022/10/14 12:59:51;;;;;;;30.15;20.67;;;16.20;99.90;;;;;;5058562;28;20628;-79
2022/10/14 13:02:45;;;;;;;31.05;20.05;;;16.10;99.90;;;;;;5050701;28;20719;-80
2022/10/14 13:05:38;;;;;;;30.98;19.95;;;16.20;99.90;;;;;;5048550;28;20240;-79
2022/10/14 13:08:28;;;;;;;29.52;20.23;;;16.20;99.90;;;;;;5039468;28;20237;-79
2022/10/14 13:11:27;;;;;;;26.42;19.95;;;16.10;99.90;;;;;;5063125;28;20221;-79
2022/10/14 13:14:24;;;;;;;28.52;20.42;;;16.10;99.90;;;;;;5055615;28;20255;-80
2022/10/14 13:17:30;;;;;;;27.58;19.77;;;16.10;99.90;;;;;;5034885;28;20222;-81
2022/10/14 13:20:52;;;;;;;26.60;19.90;;;16.00;99.90;;;;;;5037926;28;20251;-79
2022/10/14 13:23:48;;;;;;;29.25;19.15;;;16.10;99.90;;;;;;5043060;28;20225;-80
2022/10/14 13:26:44;;;;;;;27.95;19.00;;;16.10;99.90;;;;;;5037491;28;20221;-79
2022/10/14 13:29:50;;;;;;;32.42;20.67;;;16.10;99.90;;;;;;5026902;28;20226;-80
2022/10/14 13:32:45;;;;;;;27.58;19.88;;;16.10;99.90;;;;;;5016196;28;20237;-80
2022/10/14 13:35:47;;;;;;;27.52;20.42;;;16.10;99.90;;;;;;5029712;28;20584;-81
2022/10/14 13:38:51;;;;;;;32.08;20.80;;;16.10;99.90;;;;;;5031225;28;20236;-79
2022/10/14 13:41:42;;;;;;;28.35;20.58;;;16.10;99.90;;;;;;5024382;28;20337;-79
2022/10/14 13:44:32;;;;;;;36.83;21.40;;;16.20;99.90;;;;;;5024133;28;20240;-80
2022/10/14 13:47:23;;;;;;;31.67;19.40;;;16.20;99.90;;;;;;5025839;28;20253;-79
2022/10/14 13:50:12;;;;;;;35.58;22.48;;;16.20;99.90;;;;;;5039767;28;20584;-80
2022/10/14 13:53:04;;;;;;;32.33;22.38;;;16.20;99.90;;;;;;5036378;28;21690;-79
2022/10/14 13:55:56;;;;;;;31.63;22.27;;;16.10;99.90;;;;;;5043262;28;20235;-79
2022/10/14 13:58:45;;;;;;;30.42;22.08;;;16.10;99.90;;;;;;5039355;28;20695;-79
2022/10/14 14:01:38;;;;;;;29.58;20.83;;;16.10;99.90;;;;;;5028010;28;20225;-79
2022/10/14 14:04:29;;;;;;;29.40;20.30;;;16.10;99.90;;;;;;5037320;28;20225;-77
2022/10/14 14:07:23;;;;;;;29.15;20.05;;;16.00;99.90;;;;;;5027882;28;20246;-79
2022/10/14 14:10:33;;;;;;;31.08;20.90;;;16.00;99.90;;;;;;5030659;28;20663;-80
2022/10/14 14:13:43;;;;;;;30.85;20.70;;;15.90;99.90;;;;;;5026823;28;20406;-80
2022/10/14 14:16:42;;;;;;;31.25;20.73;;;15.90;99.90;;;;;;5030721;28;20232;-80
2022/10/14 14:19:33;;;;;;;34.72;19.73;;;15.80;99.90;;;;;;5030744;28;20210;-80
2022/10/14 14:22:25;;;;;;;27.95;19.17;;;15.80;99.90;;;;;;5030359;28;20217;-81
2022/10/14 14:25:25;;;;;;;26.02;19.05;;;15.90;99.90;;;;;;5027316;28;20252;-81
2022/10/14 14:28:32;;;;;;;27.83;19.58;;;15.90;99.90;;;;;;5030476;28;20315;-81
2022/10/14 14:31:24;;;;;;;30.60;19.75;;;15.90;99.90;;;;;;5034762;28;20320;-82
2022/10/14 14:34:25;;;;;;;32.60;21.05;;;15.90;99.90;;;;;;5032593;28;20217;-81
2022/10/14 14:37:20;;;;;;;28.38;20.15;;;15.80;99.90;;;;;;5033446;28;20240;-81
2022/10/14 14:40:31;;;;;;;27.92;19.65;;;15.80;99.90;;;;;;5022829;28;20224;-80
2022/10/14 14:43:20;;;;;;;25.90;19.23;;;15.80;99.90;;;;;;5042372;28;20232;-80
2022/10/14 14:46:18;;;;;;;28.25;18.83;;;15.80;99.90;;;;;;5026199;28;20687;-81
2022/10/14 14:49:08;;;;;;;26.05;16.73;;;15.70;99.90;;;;;;5032527;28;20605;-80
2022/10/14 14:51:58;;;;;;;24.30;18.77;;;15.70;99.90;;;;;;5036708;28;20225;-80
2022/10/14 15:29:17;;;;;;;27.40;20.05;;;15.30;99.90;;;;;;5112051;27;20696;-81
2022/10/14 15:32:13;;;;;;;29.75;21.15;;;15.30;99.90;;;;;;5083750;27;20329;-81
2022/10/14 15:35:02;;;;;;;27.33;20.90;;;15.30;99.90;;;;;;5075309;28;20510;-82
2022/10/14 15:37:52;;;;;;;31.25;21.67;;;15.20;99.90;;;;;;5089684;27;20586;-82
2022/10/14 15:40:43;;;;;;;34.58;20.63;;;15.20;99.90;;;;;;5094715;27;20226;-82
2022/10/14 15:43:34;;;;;;;34.88;21.08;;;15.30;99.90;;;;;;5078392;27;20393;-81
2022/10/14 15:49:32;;;;;;;28.05;20.40;;;15.30;99.90;;;;;;5087600;28;20704;-81